createdAt,value
2022-12-06T00:00:32.211Z,116.90
2022-12-06T00:03:39.731Z,116.80
2022-12-06T00:06:48.073Z,113.80
2022-12-06T00:09:54.190Z,111.00
2022-12-06T00:12:59.750Z,113.50
2022-12-06T00:16:07.585Z,110.70
2022-12-06T00:19:16.474Z,116.70
2022-12-06T00:22:22.034Z,109.60
2022-12-06T00:25:27.875Z,115.10
2022-12-06T00:28:33.738Z,108.40
2022-12-06T00:31:39.353Z,107.40
2022-12-06T00:34:45.038Z,109.00
2022-12-06T00:37:50.548Z,106.30
2022-12-06T00:41:03.771Z,104.80
2022-12-06T00:44:09.731Z,103.40
2022-12-06T00:47:15.326Z,106.80
2022-12-06T00:50:20.980Z,108.80
2022-12-06T00:53:26.934Z,87.40
2022-12-06T00:56:32.791Z,109.00
2022-12-06T00:59:38.340Z,105.00
2022-12-06T01:02:43.979Z,107.90
2022-12-06T01:05:52.060Z,113.30
2022-12-06T01:08:58.676Z,109.90
2022-12-06T01:12:04.365Z,105.30
2022-12-06T01:15:11.897Z,109.70
2022-12-06T01:18:17.678Z,109.60
2022-12-06T01:21:24.391Z,105.00
2022-12-06T01:24:30.005Z,101.80
2022-12-06T01:27:35.449Z,103.80
2022-12-06T01:30:43.433Z,102.40
2022-12-06T01:33:49.726Z,100.20
2022-12-06T01:36:55.275Z,98.30
2022-12-06T01:40:01.065Z,110.20
2022-12-06T01:43:06.987Z,107.70
2022-12-06T01:46:29.977Z,105.00
2022-12-06T01:49:37.639Z,112.40
2022-12-06T01:52:51.008Z,99.50
2022-12-06T01:55:57.139Z,98.30
2022-12-06T01:59:03.572Z,97.40
2022-12-06T02:02:10.191Z,97.60
2022-12-06T02:05:16.843Z,95.70
2022-12-06T02:08:23.263Z,102.20
2022-12-06T02:11:33.640Z,100.00
2022-12-06T02:14:41.758Z,104.00
2022-12-06T02:21:01.299Z,109.40
2022-12-06T02:24:38.660Z,109.20
2022-12-06T02:28:20.828Z,116.10
2022-12-06T02:31:30.237Z,111.30
2022-12-06T02:34:45.415Z,108.10
2022-12-06T02:37:55.063Z,104.70
2022-12-06T02:41:04.767Z,102.20
2022-12-06T02:44:20.189Z,102.20
2022-12-06T02:47:31.780Z,104.20
2022-12-06T02:50:40.969Z,102.60
2022-12-06T02:53:49.733Z,103.40
2022-12-06T02:56:55.257Z,105.60
2022-12-06T03:00:01.001Z,108.20
2022-12-06T03:03:33.314Z,102.00
2022-12-06T03:06:58.982Z,101.90
2022-12-06T03:10:23.433Z,95.20
2022-12-06T03:13:35.787Z,95.50
2022-12-06T03:16:48.483Z,91.20
2022-12-06T03:20:03.882Z,83.30
2022-12-06T03:23:12.724Z,88.60
2022-12-06T03:26:24.971Z,89.80
2022-12-06T03:29:35.512Z,93.60
2022-12-06T03:32:46.203Z,86.60
2022-12-06T03:35:54.318Z,84.70
2022-12-06T03:39:02.892Z,85.30
2022-12-06T03:42:09.710Z,91.80
2022-12-06T03:45:16.466Z,93.80
2022-12-06T03:48:27.539Z,87.10
2022-12-06T03:51:36.137Z,93.90
2022-12-06T03:54:43.410Z,86.70
2022-12-06T03:57:49.035Z,93.80
2022-12-06T04:00:54.791Z,93.50
2022-12-06T04:04:00.875Z,97.30
2022-12-06T04:07:06.469Z,97.80
2022-12-06T04:10:13.308Z,94.90
2022-12-06T04:13:19.937Z,97.40
2022-12-06T04:16:43.120Z,90.50
2022-12-06T04:19:52.050Z,90.60
2022-12-06T04:23:07.007Z,91.20
2022-12-06T04:26:14.921Z,91.20
2022-12-06T04:29:38.187Z,92.00
2022-12-06T04:33:01.222Z,84.60
2022-12-06T04:36:25.228Z,86.60
2022-12-06T04:39:30.950Z,85.40
2022-12-06T04:42:54.143Z,80.10
2022-12-06T04:45:59.624Z,90.20
2022-12-06T04:49:05.179Z,80.30
2022-12-06T04:52:11.916Z,79.20
2022-12-06T04:55:18.067Z,88.50
2022-12-06T04:58:23.625Z,88.50
2022-12-06T05:01:29.149Z,82.00
2022-12-06T05:04:35.243Z,78.70
2022-12-06T05:07:40.742Z,75.90
2022-12-06T05:10:49.771Z,84.70
2022-12-06T05:13:55.372Z,89.90
2022-12-06T05:17:00.843Z,84.30
2022-12-06T05:20:07.990Z,89.50
2022-12-06T05:23:13.658Z,85.80
2022-12-06T05:26:20.744Z,98.20
2022-12-06T05:29:26.223Z,96.00
2022-12-06T05:32:31.740Z,96.30
2022-12-06T05:35:39.895Z,92.90
2022-12-06T05:38:51.130Z,89.10
2022-12-06T05:41:57.195Z,91.20
2022-12-06T05:45:02.743Z,67.70
2022-12-06T05:48:09.563Z,88.80
2022-12-06T05:51:15.345Z,86.50
2022-12-06T05:54:21.235Z,80.30
2022-12-06T05:57:26.783Z,81.00
2022-12-06T06:00:32.643Z,79.80
2022-12-06T06:03:42.448Z,79.40
2022-12-06T06:06:51.625Z,82.80
2022-12-06T06:09:57.260Z,82.30
2022-12-06T06:13:04.464Z,80.20
2022-12-06T06:16:10.262Z,81.60
2022-12-06T06:19:16.276Z,78.70
2022-12-06T06:22:23.261Z,79.60
2022-12-06T06:25:28.915Z,95.00
2022-12-06T06:28:34.465Z,86.50
2022-12-06T06:31:40.048Z,87.30
2022-12-06T06:34:45.590Z,79.60
2022-12-06T06:37:51.112Z,83.30
2022-12-06T06:40:56.660Z,84.30
2022-12-06T06:44:02.210Z,72.20
2022-12-06T06:47:07.964Z,72.90
2022-12-06T06:50:14.618Z,70.30
2022-12-06T06:53:20.604Z,69.50
2022-12-06T06:56:26.148Z,65.90
2022-12-06T06:59:31.698Z,66.20
2022-12-06T07:02:39.668Z,62.50
2022-12-06T07:05:45.332Z,63.50
2022-12-06T07:08:51.007Z,61.20
2022-12-06T07:11:57.683Z,60.90
2022-12-06T07:15:03.125Z,58.10
2022-12-06T07:18:08.784Z,60.10
2022-12-06T07:21:16.437Z,55.70
2022-12-06T07:24:22.133Z,52.10
2022-12-06T07:27:27.682Z,51.80
2022-12-06T07:30:33.304Z,53.50
2022-12-06T07:33:39.445Z,55.90
2022-12-06T07:36:44.946Z,56.70
2022-12-06T07:39:50.378Z,52.40
2022-12-06T07:43:13.353Z,56.00
2022-12-06T07:46:18.844Z,53.50
2022-12-06T07:49:24.797Z,58.80
2022-12-06T07:52:33.937Z,58.40
2022-12-06T07:55:39.466Z,54.40
2022-12-06T07:58:45.398Z,50.90
2022-12-06T08:01:51.336Z,52.10
2022-12-06T08:04:58.534Z,49.20
2022-12-06T08:08:04.139Z,49.30
2022-12-06T08:11:10.770Z,47.30
2022-12-06T08:14:16.959Z,51.40
2022-12-06T08:17:22.429Z,47.00
2022-12-06T08:20:27.931Z,45.30
2022-12-06T08:23:34.651Z,46.90
2022-12-06T08:26:40.354Z,44.30
2022-12-06T08:29:46.319Z,45.40
2022-12-06T08:32:51.759Z,42.10
2022-12-06T08:35:57.315Z,45.20
2022-12-06T08:39:02.916Z,44.30
2022-12-06T08:42:08.620Z,44.20
2022-12-06T08:45:14.204Z,44.20
2022-12-06T08:48:19.719Z,47.70
2022-12-06T08:51:25.574Z,44.10
2022-12-06T08:54:31.434Z,46.50
2022-12-06T08:57:36.973Z,42.70
2022-12-06T09:00:42.427Z,41.00
2022-12-06T09:03:48.163Z,42.20
2022-12-06T09:06:53.935Z,42.80
2022-12-06T09:09:59.897Z,43.40
2022-12-06T09:16:15.794Z,45.30
2022-12-06T09:19:21.835Z,42.30
2022-12-06T09:22:27.520Z,43.00
2022-12-06T09:25:33.069Z,44.00
2022-12-06T09:28:41.074Z,46.00
2022-12-06T09:31:46.811Z,43.60
2022-12-06T09:34:52.862Z,42.20
2022-12-06T09:37:59.402Z,49.10
2022-12-06T09:41:12.852Z,45.80
2022-12-06T09:44:32.319Z,47.10
2022-12-06T09:47:53.836Z,48.20
2022-12-06T09:51:14.871Z,46.40
2022-12-06T09:54:33.935Z,50.50
2022-12-06T09:57:46.592Z,51.20
2022-12-06T10:01:01.256Z,46.90
2022-12-06T10:04:43.032Z,49.20
2022-12-06T10:07:55.954Z,50.60
2022-12-06T10:11:09.921Z,48.90
2022-12-06T10:14:31.646Z,50.60
2022-12-06T10:17:52.262Z,51.90
2022-12-06T10:21:10.800Z,54.20
2022-12-06T10:24:29.668Z,51.80
2022-12-06T10:27:40.687Z,51.70
2022-12-06T10:30:54.642Z,50.90
2022-12-06T10:34:06.052Z,47.60
2022-12-06T10:37:23.610Z,51.10
2022-12-06T10:40:38.169Z,49.00
2022-12-06T10:43:53.550Z,47.90
2022-12-06T10:47:04.868Z,50.70
2022-12-06T10:50:24.001Z,49.00
2022-12-06T10:53:35.083Z,50.30
2022-12-06T10:56:43.136Z,48.70
2022-12-06T10:59:55.183Z,47.00
2022-12-06T11:03:12.311Z,48.60
2022-12-06T11:06:27.031Z,45.30
2022-12-06T11:09:39.896Z,47.80
2022-12-06T11:12:46.671Z,48.40
2022-12-06T11:15:59.410Z,46.10
2022-12-06T11:19:21.833Z,51.40
2022-12-06T11:22:37.562Z,50.60
2022-12-06T11:26:00.175Z,45.70
2022-12-06T11:29:11.249Z,46.50
2022-12-06T11:32:19.361Z,47.70
2022-12-06T11:35:27.782Z,43.70
2022-12-06T11:38:34.754Z,43.70
2022-12-06T11:41:40.419Z,45.50
2022-12-06T11:45:01.370Z,42.20
2022-12-06T11:48:18.199Z,43.10
2022-12-06T11:51:25.741Z,44.00
2022-12-06T11:54:35.167Z,40.30
2022-12-06T11:57:46.254Z,42.70
2022-12-06T12:01:04.271Z,48.00
2022-12-06T12:04:27.867Z,49.20
2022-12-06T12:07:35.095Z,43.10
2022-12-06T12:10:44.392Z,56.10
2022-12-06T12:13:55.884Z,43.20
2022-12-06T12:17:04.808Z,43.60
2022-12-06T12:20:23.321Z,44.00
2022-12-06T12:23:33.999Z,45.30
2022-12-06T12:26:42.597Z,43.00
2022-12-06T12:29:48.309Z,46.70
2022-12-06T12:33:09.591Z,45.20
2022-12-06T12:36:23.057Z,43.10
2022-12-06T12:39:42.331Z,50.80
2022-12-06T12:42:48.951Z,44.40
2022-12-06T12:46:20.827Z,45.20
2022-12-06T12:49:31.362Z,44.40
2022-12-06T12:52:39.955Z,45.30
2022-12-06T12:55:46.706Z,43.50
2022-12-06T12:58:55.326Z,43.80
2022-12-06T13:02:06.766Z,45.10
2022-12-06T13:05:35.481Z,47.20
2022-12-06T13:08:42.627Z,47.50
2022-12-06T13:11:54.075Z,44.00
2022-12-06T13:15:05.193Z,45.30
2022-12-06T13:18:15.251Z,43.30
2022-12-06T13:21:24.348Z,42.40
2022-12-06T13:24:32.586Z,44.70
2022-12-06T13:27:41.661Z,41.80
2022-12-06T13:30:50.397Z,43.10
2022-12-06T13:34:01.631Z,49.20
2022-12-06T13:37:27.248Z,46.40
2022-12-06T13:40:55.947Z,55.00
2022-12-06T13:44:01.594Z,65.50
2022-12-06T13:50:56.165Z,58.60
2022-12-06T13:54:37.609Z,48.80
2022-12-06T13:57:43.362Z,55.80
2022-12-06T14:00:53.861Z,54.70
2022-12-06T14:04:01.316Z,48.40
2022-12-06T14:10:15.643Z,67.90
2022-12-06T14:13:22.880Z,48.20
2022-12-06T14:16:32.619Z,37.60
2022-12-06T14:19:45.574Z,55.30
2022-12-06T14:22:51.372Z,45.80
2022-12-06T14:26:14.016Z,44.00
2022-12-06T14:29:24.828Z,34.40
2022-12-06T14:32:39.082Z,28.30
2022-12-06T14:35:52.470Z,33.00
2022-12-06T14:39:02.499Z,28.30
2022-12-06T14:42:37.753Z,29.20
2022-12-06T14:45:45.190Z,30.00
2022-12-06T14:49:08.523Z,31.20
2022-12-06T14:52:23.208Z,27.10
2022-12-06T14:55:31.007Z,22.40
2022-12-06T14:58:38.016Z,22.00
2022-12-06T15:01:54.351Z,21.90
2022-12-06T15:05:00.687Z,23.40
2022-12-06T15:12:00.330Z,19.70
2022-12-06T15:15:07.081Z,18.90
2022-12-06T15:18:25.559Z,20.20
2022-12-06T15:21:31.195Z,19.10
2022-12-06T15:24:36.780Z,16.70
2022-12-06T15:27:42.348Z,17.50
2022-12-06T15:30:48.311Z,17.10
2022-12-06T15:33:54.125Z,18.10
2022-12-06T15:37:36.850Z,19.60
2022-12-06T15:40:26.830Z,16.00
2022-12-06T15:43:34.901Z,16.20
2022-12-06T15:46:40.988Z,15.90
2022-12-06T15:49:46.751Z,16.00
2022-12-06T15:52:52.282Z,15.50
2022-12-06T15:55:58.467Z,16.70
2022-12-06T15:59:04.004Z,16.00
2022-12-06T16:02:15.903Z,15.10
2022-12-06T16:05:21.716Z,16.00
2022-12-06T16:08:27.375Z,16.70
2022-12-06T16:11:33.070Z,17.70
2022-12-06T16:14:38.626Z,16.80
2022-12-06T16:17:44.275Z,17.30
2022-12-06T16:20:50.507Z,17.40
2022-12-06T16:24:13.073Z,17.90
2022-12-06T16:27:19.970Z,18.40
2022-12-06T16:30:35.272Z,20.30
2022-12-06T16:33:41.715Z,20.40
2022-12-06T16:37:02.030Z,19.90
2022-12-06T16:40:19.928Z,25.70
2022-12-06T16:43:25.711Z,33.90
2022-12-06T16:46:33.829Z,17.40
2022-12-06T16:49:47.007Z,22.30
2022-12-06T16:52:55.209Z,19.50
2022-12-06T16:56:00.806Z,19.90
2022-12-06T16:59:06.874Z,20.00
2022-12-06T17:02:24.510Z,18.90
2022-12-06T17:05:30.517Z,24.30
2022-12-06T17:08:36.264Z,27.20
2022-12-06T17:12:00.199Z,30.50
2022-12-06T17:15:06.583Z,23.20
2022-12-06T17:21:17.375Z,21.90
2022-12-06T17:24:25.668Z,28.20
2022-12-06T17:27:31.321Z,23.80
2022-12-06T17:30:36.974Z,21.90
2022-12-06T17:33:42.706Z,21.70
2022-12-06T17:36:48.648Z,22.90
2022-12-06T17:39:54.230Z,23.20
2022-12-06T17:43:02.519Z,23.20
2022-12-06T17:46:11.430Z,33.70
2022-12-06T17:49:19.361Z,26.40
2022-12-06T17:52:25.341Z,43.50
2022-12-06T17:55:31.089Z,29.60
2022-12-06T17:58:37.043Z,33.70
2022-12-06T18:02:14.851Z,27.30
2022-12-06T18:05:10.477Z,28.70
2022-12-06T18:08:16.210Z,23.40
2022-12-06T18:11:23.876Z,24.60
2022-12-06T18:14:29.889Z,24.90
2022-12-06T18:17:35.540Z,24.50
2022-12-06T18:20:43.286Z,25.90
2022-12-06T18:24:19.818Z,24.60
2022-12-06T18:27:16.356Z,23.40
2022-12-06T18:30:22.315Z,21.50
2022-12-06T18:33:31.114Z,20.50
2022-12-06T18:36:36.896Z,20.80
2022-12-06T18:39:42.441Z,19.30
2022-12-06T18:42:48.032Z,16.00
2022-12-06T18:46:00.357Z,16.20
2022-12-06T18:49:06.188Z,16.00
2022-12-06T18:52:12.834Z,15.90
2022-12-06T18:55:18.861Z,14.90
2022-12-06T18:58:24.551Z,15.70
2022-12-06T19:01:33.674Z,13.80
2022-12-06T19:04:39.298Z,14.00
2022-12-06T19:07:45.854Z,14.10
2022-12-06T19:10:51.479Z,12.30
2022-12-06T19:13:58.423Z,14.60
2022-12-06T19:17:04.271Z,13.50
2022-12-06T19:20:11.235Z,12.00
2022-12-06T19:23:17.095Z,12.90
2022-12-06T19:26:23.425Z,12.40
2022-12-06T19:32:34.264Z,12.20
2022-12-06T19:38:44.577Z,11.80
2022-12-06T19:42:04.869Z,12.70
2022-12-06T19:45:12.551Z,13.80
2022-12-06T19:48:18.222Z,14.30
2022-12-06T19:51:24.408Z,14.10
2022-12-06T19:54:32.986Z,13.90
2022-12-06T19:57:40.422Z,14.00
2022-12-06T20:00:50.311Z,13.20
2022-12-06T20:03:56.511Z,12.60
2022-12-06T20:07:02.488Z,14.00
2022-12-06T20:10:10.148Z,13.30
2022-12-06T20:13:15.687Z,13.50
2022-12-06T20:16:21.412Z,8.80
2022-12-06T20:19:27.541Z,13.70
2022-12-06T20:22:33.210Z,13.30
2022-12-06T20:25:38.792Z,11.80
2022-12-06T20:28:45.221Z,13.80
2022-12-06T20:31:52.101Z,12.20
2022-12-06T20:34:57.823Z,12.30
2022-12-06T20:38:03.497Z,11.70
2022-12-06T20:41:14.473Z,11.90
2022-12-06T20:44:21.355Z,11.00
2022-12-06T20:47:27.072Z,12.90
2022-12-06T20:50:32.657Z,13.80
2022-12-06T20:53:38.415Z,12.50
2022-12-06T20:56:44.338Z,12.70
2022-12-06T20:59:50.023Z,11.10
2022-12-06T21:02:55.735Z,13.50
2022-12-06T21:06:02.573Z,12.20
2022-12-06T21:09:08.145Z,12.90
2022-12-06T21:12:13.721Z,13.10
2022-12-06T21:15:19.615Z,11.00
2022-12-06T21:18:28.572Z,11.80
2022-12-06T21:21:37.674Z,10.90
2022-12-06T21:24:43.327Z,12.10
2022-12-06T21:27:48.923Z,10.40
2022-12-06T21:30:55.596Z,11.70
2022-12-06T21:34:01.927Z,11.90
2022-12-06T21:40:13.700Z,12.10
2022-12-06T21:43:19.265Z,12.90
2022-12-06T21:46:26.929Z,12.80
2022-12-06T21:49:32.555Z,11.60
2022-12-06T21:52:38.290Z,12.50
2022-12-06T21:55:43.944Z,12.00
2022-12-06T21:58:50.422Z,12.50
2022-12-06T22:01:56.014Z,17.20
2022-12-06T22:05:01.671Z,12.00
2022-12-06T22:08:08.075Z,11.30
2022-12-06T22:11:16.060Z,12.70
2022-12-06T22:14:22.051Z,10.10
2022-12-06T22:17:28.014Z,11.80
2022-12-06T22:20:33.612Z,11.80
2022-12-06T22:23:39.627Z,11.80
2022-12-06T22:26:45.195Z,12.90
2022-12-06T22:29:50.820Z,11.90
2022-12-06T22:32:56.370Z,11.80
2022-12-06T22:36:03.561Z,12.40
2022-12-06T22:39:09.340Z,12.20
2022-12-06T22:42:14.864Z,12.50
2022-12-06T22:45:20.539Z,11.20
2022-12-06T22:48:26.302Z,12.30
2022-12-06T22:51:33.301Z,11.40
2022-12-06T22:54:39.210Z,10.90
2022-12-06T22:57:44.864Z,9.20
2022-12-06T23:00:50.518Z,10.40
2022-12-06T23:03:57.104Z,11.50
2022-12-06T23:07:03.304Z,10.80
2022-12-06T23:10:11.660Z,10.00
2022-12-06T23:13:17.214Z,9.90
2022-12-06T23:16:24.787Z,9.80
2022-12-06T23:19:30.566Z,9.70
2022-12-06T23:22:36.128Z,10.90
2022-12-06T23:25:41.770Z,10.50
2022-12-06T23:28:48.132Z,10.40
2022-12-06T23:34:57.948Z,10.20
2022-12-06T23:38:03.479Z,9.80
2022-12-06T23:41:12.275Z,10.30
2022-12-06T23:44:18.039Z,9.90
2022-12-06T23:47:23.630Z,9.90
2022-12-06T23:50:29.235Z,11.40
2022-12-06T23:53:35.913Z,10.20
2022-12-06T23:56:42.997Z,11.10
2022-12-06T23:59:48.650Z,10.10
